Time;durP1;ratioP1;P1;durP2;ratioP2;P2;SDS_P1;SDS_P2;PMS_P1;PMS_P2;Temp;Humidity;BMP_temperature;BMP_pressure;BME280_temperature;BME280_humidity;BME280_pressure;Samples;Min_cycle;Max_cycle;Signal;HPM_P1;HPM_P2
2023/11/28 00:00:32;;;;;;;60.60;25.50;;;;;;;-3.32;100.00;99061.40;223284;1266;140690;-79
2023/11/28 00:06:33;;;;;;;70.00;29.60;;;;;;;-3.34;100.00;99059.18;223114;1266;140693;-79
2023/11/28 00:12:35;;;;;;;60.10;25.70;;;;;;;-3.33;100.00;99056.44;223805;1266;139286;-79
2023/11/28 00:18:35;;;;;;;52.90;26.60;;;;;;;-3.33;100.00;99050.53;223214;1266;140187;-79
2023/11/28 00:30:23;;;;;;;67.20;29.70;;;;;;;-3.30;100.00;99049.75;223191;1265;139880;-79
2023/11/28 00:36:24;;;;;;;64.60;30.50;;;;;;;-3.29;100.00;99044.94;223035;1267;140447;-78
2023/11/28 00:42:17;;;;;;;;;;;;;;;;;;;;;
2023/11/28 00:48:21;;;;;;;70.90;30.60;;;;;;;-3.32;100.00;99026.95;223129;1267;140247;-79
2023/11/28 00:54:20;;;;;;;66.80;29.60;;;;;;;-3.31;100.00;99019.11;223812;1265;139802;-78
2023/11/28 01:00:20;;;;;;;74.40;33.90;;;;;;;-3.30;100.00;99010.33;223234;1265;140285;-78
2023/11/28 01:12:13;;;;;;;;;;;;;;;;;;;;;
2023/11/28 01:18:17;;;;;;;77.60;32.20;;;;;;;-3.23;100.00;99002.78;223220;1265;140619;-78
2023/11/28 01:24:18;;;;;;;72.00;32.20;;;;;;;-3.22;100.00;98995.52;223800;1265;139709;-78
2023/11/28 01:30:12;;;;;;;74.20;31.50;;;;;;;-3.22;100.00;98990.67;223247;1265;139944;-79
2023/11/28 01:36:13;;;;;;;73.90;32.20;;;;;;;-3.21;100.00;98980.27;223924;1265;139143;-79
2023/11/28 01:42:14;;;;;;;71.30;31.20;;;;;;;-3.20;100.00;98969.69;223733;1266;139287;-79
2023/11/28 01:48:08;;;;;;;;;;;;;;;;;;;;;
2023/11/28 01:54:04;;;;;;;;;;;;;;;;;;;;;
2023/11/28 02:00:05;;;;;;;65.90;29.80;;;;;;;-3.11;100.00;98951.23;223244;1265;140535;-79
2023/11/28 02:12:08;;;;;;;74.70;30.10;;;;;;;-3.06;100.00;98932.79;223797;1265;139261;-79
2023/11/28 02:18:09;;;;;;;70.10;29.30;;;;;;;-3.04;100.00;98924.08;223167;1265;141457;-78
2023/11/28 02:24:20;;;;;;;;;;;;;;;;;;;;;
2023/11/28 02:30:05;;;;;;;62.70;27.90;;;;;;;-3.01;100.00;98922.58;223183;1265;140411;-79
2023/11/28 02:36:06;;;;;;;69.50;28.10;;;;;;;-2.98;100.00;98915.34;223822;1265;139274;-79
2023/11/28 02:42:07;;;;;;;72.00;28.00;;;;;;;-2.96;100.00;98912.66;223840;1265;139294;-79
2023/11/28 02:48:08;;;;;;;60.60;25.00;;;;;;;-2.94;100.00;98906.27;223256;1265;140342;-79
2023/11/28 02:54:08;;;;;;;55.40;24.40;;;;;;;-2.93;100.00;98898.77;223731;1265;139356;-79
2023/11/28 03:00:10;;;;;;;56.40;24.90;;;;;;;-2.93;100.00;98894.92;223226;1265;140246;-79
2023/11/28 03:06:11;;;;;;;54.30;24.60;;;;;;;-2.92;100.00;98893.64;223726;1265;139384;-79
2023/11/28 03:12:11;;;;;;;60.90;25.30;;;;;;;-2.93;100.00;98878.08;223810;1265;139204;-79
2023/11/28 03:17:52;;;;;;;52.70;23.50;;;;;;;-2.94;100.00;98870.11;223332;1265;140760;-79
2023/11/28 03:23:53;;;;;;;53.80;22.90;;;;;;;-2.95;100.00;98862.45;223841;1265;139116;-79
2023/11/28 03:29:54;;;;;;;51.40;22.20;;;;;;;-2.95;100.00;98857.39;223264;1265;140748;-79
2023/11/28 03:35:54;;;;;;;;;;;;;;;;;;;;;
2023/11/28 03:41:56;;;;;;;48.90;21.50;;;;;;;-2.94;100.00;98845.77;223578;1265;387653;-78
2023/11/28 03:47:56;;;;;;;;;;;;;;;;;;;;;
2023/11/28 03:53:57;;;;;;;42.00;19.30;;;;;;;-2.90;100.00;98843.42;223748;1265;139066;-79
2023/11/28 03:59:50;;;;;;;;;;;;;;;;;;;;;
2023/11/28 04:06:05;;;;;;;50.20;19.70;;;;;;;-2.88;100.00;98838.15;223834;1265;139172;-79
2023/11/28 04:12:06;;;;;;;43.60;19.80;;;;;;;-2.87;100.00;98829.71;223429;1265;366519;-79
2023/11/28 04:17:57;;;;;;;;;;;;;;;;;;;;;
2023/11/28 04:23:49;;;;;;;43.50;19.10;;;;;;;-2.86;100.00;98828.92;223732;1265;139552;-79
2023/11/28 04:29:39;;;;;;;46.80;19.60;;;;;;;-2.85;100.00;98830.09;223268;1266;140305;-78
2023/11/28 04:35:41;;;;;;;42.40;19.70;;;;;;;-2.84;100.00;98823.69;223764;1265;139864;-79
2023/11/28 04:47:43;;;;;;;45.40;20.20;;;;;;;-2.82;100.00;98819.52;223192;1265;140454;-79
2023/11/28 04:53:44;;;;;;;42.00;18.50;;;;;;;-2.82;100.00;98820.38;223759;1265;140063;-79
2023/11/28 04:59:31;;;;;;;43.60;18.60;;;;;;;-2.81;100.00;98814.02;223361;1265;140295;-79
2023/11/28 05:05:32;;;;;;;46.20;19.30;;;;;;;-2.81;100.00;98812.11;223718;1265;139410;-79
2023/11/28 05:11:34;;;;;;;38.50;17.00;;;;;;;-2.82;100.00;98811.44;223583;1265;250493;-78
2023/11/28 05:17:33;;;;;;;;;;;;;;;;;;;;;
2023/11/28 05:23:35;;;;;;;39.50;17.60;;;;;;;-2.80;100.00;98803.14;223825;1265;139318;-78
2023/11/28 05:29:36;;;;;;;40.30;17.00;;;;;;;-2.80;100.00;98801.98;223225;1265;141463;-79
2023/11/28 05:35:30;;;;;;;;;;;;;;;;;;;;;
2023/11/28 05:41:32;;;;;;;34.20;16.10;;;;;;;-2.78;100.00;98807.43;223738;1265;139180;-78
2023/11/28 05:47:33;;;;;;;36.90;16.90;;;;;;;-2.78;100.00;98813.91;223304;1265;140336;-78
2023/11/28 05:59:35;;;;;;;45.80;19.60;;;;;;;-2.76;100.00;98833.88;223287;1265;140463;-78
2023/11/28 06:17:38;;;;;;;41.10;20.10;;;;;;;-2.76;100.00;98851.21;223167;1265;140355;-79
2023/11/28 06:29:38;;;;;;;;;;;;;;;;;;;;;
2023/11/28 06:35:34;;;;;;;44.60;21.40;;;;;;;-2.77;100.00;98848.80;223791;1265;139608;-79
2023/11/28 06:41:31;;;;;;;56.50;21.50;;;;;;;-2.75;100.00;98848.23;223518;1265;139188;-79
2023/11/28 06:47:31;;;;;;;;;;;;;;;;;;;;;
2023/11/28 06:53:34;;;;;;;40.70;18.60;;;;;;;-2.72;100.00;98849.75;223776;1265;139266;-78
2023/11/28 06:59:35;;;;;;;41.20;18.30;;;;;;;-2.70;100.00;98855.59;223281;1266;140825;-79
2023/11/28 07:05:28;;;;;;;45.00;19.30;;;;;;;-2.70;100.00;98860.50;223695;1265;139339;-79
2023/11/28 07:11:13;;;;;;;43.40;19.60;;;;;;;-2.70;100.00;98858.98;223504;1267;140137;-80
2023/11/28 07:17:14;;;;;;;46.50;21.00;;;;;;;-2.68;100.00;98857.36;223285;1265;140560;-80
2023/11/28 07:23:15;;;;;;;45.90;19.80;;;;;;;-2.66;100.00;98862.03;223771;1265;139307;-80
2023/11/28 07:29:16;;;;;;;49.60;22.50;;;;;;;-2.66;100.00;98867.77;223357;1265;140342;-78
2023/11/28 07:35:09;;;;;;;60.20;24.50;;;;;;;-2.63;100.00;98863.52;223719;1265;139216;-80
2023/11/28 07:41:03;;;;;;;54.20;25.00;;;;;;;-2.61;100.00;98864.48;223211;1265;140294;-79
2023/11/28 07:46:54;;;;;;;62.10;28.30;;;;;;;-2.60;100.00;98862.59;223233;1269;140520;-78
2023/11/28 07:52:55;;;;;;;55.30;23.40;;;;;;;-2.59;100.00;98864.10;223804;1266;139874;-77
2023/11/28 07:58:58;;;;;;;60.50;24.40;;;;;;;-2.56;100.00;98869.66;223076;1265;141021;-79
2023/11/28 08:04:59;;;;;;;58.00;25.70;;;;;;;-2.51;100.00;98870.69;223756;1265;139147;-78
2023/11/28 08:11:00;;;;;;;62.60;25.30;;;;;;;-2.44;100.00;98876.40;223109;1265;140330;-78
2023/11/28 08:16:59;;;;;;;;;;;;;;;;;;;;;
2023/11/28 08:29:05;;;;;;;65.10;25.60;;;;;;;-2.28;100.00;98906.33;223133;1269;140407;-78
2023/11/28 08:35:06;;;;;;;57.80;24.10;;;;;;;-2.21;100.00;98912.48;223640;1265;139198;-78
2023/11/28 08:41:07;;;;;;;;;;;;;;;;;;;;;
2023/11/28 08:47:09;;;;;;;68.40;27.20;;;;;;;-2.16;100.00;98920.02;223202;1265;140389;-79
2023/11/28 08:53:08;;;;;;;;;;;;;;;;;;;;;
2023/11/28 08:59:10;;;;;;;;;;;;;;;;;;;;;
2023/11/28 09:05:05;;;;;;;56.00;24.00;;;;;;;-1.96;100.00;98925.54;223726;1266;139315;-79
2023/11/28 09:10:54;;;;;;;;;;;;;;;;;;;;;
2023/11/28 09:16:49;;;;;;;;;;;;;;;;;;;;;
2023/11/28 09:22:44;;;;;;;49.00;22.40;;;;;;;-1.79;100.00;98925.21;223697;1265;139477;-79
2023/11/28 09:28:34;;;;;;;;;;;;;;;;;;;;;
2023/11/28 09:34:34;;;;;;;;;;;;;;;;;;;;;
2023/11/28 09:40:19;;;;;;;53.20;23.50;;;;;;;-1.56;100.00;98927.95;219094;1265;5425891;-79
2023/11/28 10:04:05;;;;;;;58.80;23.00;;;;;;;-1.30;100.00;98921.66;223801;1266;139203;-80
2023/11/28 10:09:56;;;;;;;63.50;25.90;;;;;;;-1.22;100.00;98919.30;222933;1266;140790;-80
2023/11/28 10:15:59;;;;;;;;;;;;;;;;;;;;;
2023/11/28 10:21:58;;;;;;;59.80;24.00;;;;;;;-1.01;100.00;98907.48;223669;1266;139301;-80
2023/11/28 10:28:01;;;;;;;51.30;22.50;;;;;;;-0.88;100.00;98901.11;223115;1268;141037;-81
2023/11/28 10:34:00;;;;;;;49.00;22.10;;;;;;;-0.79;100.00;98898.70;223653;1265;140258;-81
2023/11/28 10:40:00;;;;;;;;;;;;;;;;;;;;;
2023/11/28 10:46:02;;;;;;;49.90;21.60;;;;;;;-0.61;100.00;98895.15;223691;1266;139180;-81
2023/11/28 10:52:05;;;;;;;51.10;21.60;;;;;;;-0.50;100.00;98893.80;223606;1269;385378;-80
2023/11/28 10:58:04;;;;;;;57.00;22.90;;;;;;;-0.44;100.00;98884.23;223127;1265;140395;-81
2023/11/28 11:10:08;;;;;;;49.40;20.90;;;;;;;-0.44;100.00;98886.62;222834;1270;141215;-80
2023/11/28 11:15:28;;;;;;;;;;;;;;;;;;;;;
2023/11/28 11:21:33;;;;;;;55.40;21.90;;;;;;;-0.46;100.00;98884.89;223629;1266;138596;-82
2023/11/28 11:33:09;;;;;;;;;;;;;;;;;;;;;
2023/11/28 11:45:22;;;;;;;43.80;18.00;;;;;;;-0.33;100.00;98879.23;223724;1267;107234;-80
2023/11/28 11:51:23;;;;;;;40.60;17.80;;;;;;;-0.29;100.00;98881.44;223363;1269;139419;-80
2023/11/28 11:57:24;;;;;;;43.80;18.50;;;;;;;-0.30;100.00;98885.96;223241;1269;141098;-80
2023/11/28 12:03:26;;;;;;;53.60;20.80;;;;;;;-0.40;100.00;98888.39;223875;1265;107507;-79
2023/11/28 12:09:40;;;;;;;44.50;17.90;;;;;;;-0.42;100.00;98880.06;223339;1269;140950;-81
2023/11/28 12:15:44;;;;;;;41.60;17.00;;;;;;;-0.37;100.00;98886.14;223724;1266;107869;-79
2023/11/28 12:22:12;;;;;;;43.60;18.50;;;;;;;-0.39;100.00;98891.11;223672;1266;387260;-80
2023/11/28 12:27:36;;;;;;;;;;;;;;;;;;;;;
2023/11/28 12:33:38;;;;;;;45.90;19.30;;;;;;;-0.29;100.00;98893.56;223778;1266;139014;-80
2023/11/28 12:39:40;;;;;;;51.60;21.60;;;;;;;-0.29;100.00;98894.25;223187;1269;141000;-81
2023/11/28 12:45:41;;;;;;;43.40;18.50;;;;;;;-0.26;100.00;98900.53;223787;1265;138712;-81
2023/11/28 12:51:42;;;;;;;42.90;18.50;;;;;;;-0.21;100.00;98903.60;223660;1266;139447;-81
2023/11/28 12:57:27;;;;;;;;;;;;;;;;;;;;;
2023/11/28 13:09:36;;;;;;;47.40;24.80;;;;;;;-0.29;100.00;98918.67;223166;1269;140370;-80
2023/11/28 13:15:38;;;;;;;49.80;24.70;;;;;;;-0.33;100.00;98927.90;223745;1266;139340;-81
2023/11/28 13:27:23;;;;;;;37.40;17.20;;;;;;;-0.33;100.00;98936.06;223111;1266;142434;-82
2023/11/28 13:33:26;;;;;;;42.90;19.40;;;;;;;-0.34;100.00;98941.36;223762;1266;139210;-80
2023/11/28 13:39:26;;;;;;;40.90;18.20;;;;;;;-0.32;100.00;98943.21;223202;1266;140690;-81
2023/11/28 13:45:08;;;;;;;;;;;;;;;;;;;;;
2023/11/28 13:51:09;;;;;;;45.90;19.70;;;;;;;-0.41;100.00;98953.81;223194;1265;139616;-81
2023/11/28 13:57:10;;;;;;;40.50;18.70;;;;;;;-0.51;100.00;98958.90;223260;1266;141193;-80
2023/11/28 14:02:56;;;;;;;40.40;18.00;;;;;;;-0.58;100.00;98964.80;223795;1266;138998;-80
2023/11/28 14:09:05;;;;;;;40.40;19.00;;;;;;;-0.63;100.00;98975.73;223201;1266;141875;-81
2023/11/28 14:15:05;;;;;;;43.10;18.60;;;;;;;-0.74;100.00;98983.59;223759;1266;139486;-80
2023/11/28 14:21:00;;;;;;;43.00;19.30;;;;;;;-0.79;100.00;98988.11;223238;1266;140797;-80
2023/11/28 14:26:53;;;;;;;44.20;19.00;;;;;;;-0.88;100.00;98994.70;223121;1266;140627;-80
2023/11/28 14:32:41;;;;;;;;;;;;;;;;;;;;;
2023/11/28 14:38:50;;;;;;;43.10;19.60;;;;;;;-1.05;100.00;99001.01;223220;1266;141227;-80
2023/11/28 14:44:51;;;;;;;43.90;19.90;;;;;;;-1.12;100.00;99004.70;223673;1266;139034;-80
2023/11/28 14:50:53;;;;;;;52.70;23.00;;;;;;;-1.20;100.00;99007.20;223117;1266;140031;-80
2023/11/28 14:56:54;;;;;;;41.30;19.50;;;;;;;-1.27;100.00;99015.83;223106;1266;140682;-79
2023/11/28 15:02:58;;;;;;;46.70;20.20;;;;;;;-1.35;100.00;99023.23;223851;1268;139509;-79
2023/11/28 15:08:58;;;;;;;46.70;20.40;;;;;;;-1.41;100.00;99034.05;223215;1266;140773;-79
2023/11/28 15:14:58;;;;;;;41.40;18.60;;;;;;;-1.43;100.00;99042.14;223751;1265;139627;-79
2023/11/28 15:21:00;;;;;;;36.50;17.50;;;;;;;-1.46;100.00;99053.52;223261;1266;141588;-79
2023/11/28 15:32:55;;;;;;;48.00;21.60;;;;;;;-1.54;100.00;99059.86;223833;1269;139215;-79
2023/11/28 15:38:58;;;;;;;45.20;22.40;;;;;;;-1.61;100.00;99071.86;223288;1266;141525;-79
2023/11/28 15:45:00;;;;;;;45.80;19.90;;;;;;;-1.66;100.00;99081.62;223885;1269;139212;-79
2023/11/28 15:50:41;;;;;;;48.40;22.00;;;;;;;-1.68;100.00;99086.77;223297;1267;140764;-79
2023/11/28 15:56:48;;;;;;;48.10;21.60;;;;;;;-1.72;100.00;99097.18;223284;1265;140722;-79
2023/11/28 16:02:49;;;;;;;48.90;21.30;;;;;;;-1.76;100.00;99096.80;223695;1266;139473;-79
2023/11/28 16:08:47;;;;;;;48.20;23.20;;;;;;;-1.77;100.00;99107.90;223172;1267;141097;-79
2023/11/28 16:14:48;;;;;;;54.60;23.10;;;;;;;-1.80;100.00;99115.35;223859;1266;138957;-79
2023/11/28 16:20:44;;;;;;;52.10;22.90;;;;;;;-1.82;100.00;99126.37;223352;1267;140207;-78
2023/11/28 16:26:46;;;;;;;52.80;25.40;;;;;;;-1.85;100.00;99131.21;223052;1265;140735;-78
2023/11/28 16:38:38;;;;;;;70.10;31.50;;;;;;;-1.90;100.00;99143.23;223270;1267;140418;-78
2023/11/28 16:44:33;;;;;;;92.10;43.20;;;;;;;-1.94;100.00;99150.77;223696;1267;139126;-78
2023/11/28 16:50:18;;;;;;;98.80;47.20;;;;;;;-1.98;100.00;99161.01;223034;1266;140342;-80
2023/11/28 16:56:01;;;;;;;;;;;;;;;;;;;;;
2023/11/28 17:02:11;;;;;;;82.00;40.60;;;;;;;-2.02;100.00;99184.48;223713;1267;138957;-77
2023/11/28 17:08:01;;;;;;;100.10;47.90;;;;;;;-2.05;100.00;99187.52;223106;1265;140718;-78
2023/11/28 17:13:46;;;;;;;105.60;55.30;;;;;;;-2.09;100.00;99192.67;223904;1266;139301;-77
2023/11/28 17:19:48;;;;;;;73.40;34.50;;;;;;;-2.12;100.00;99198.33;223173;1266;140038;-80
2023/11/28 17:25:49;;;;;;;67.70;30.10;;;;;;;-2.15;100.00;99209.70;223921;1265;139704;-80
2023/11/28 17:31:53;;;;;;;88.70;35.90;;;;;;;-2.22;100.00;99211.23;223749;1266;140079;-79
2023/11/28 17:37:53;;;;;;;56.50;24.20;;;;;;;-2.27;100.00;99213.59;223360;1265;140996;-78
2023/11/28 17:43:56;;;;;;;54.00;23.30;;;;;;;-2.30;100.00;99223.23;224043;1265;139306;-78
2023/11/28 17:49:50;;;;;;;48.80;21.40;;;;;;;-2.33;100.00;99223.70;222997;1266;140353;-79
2023/11/28 17:55:16;;;;;;;48.40;21.30;;;;;;;-2.38;100.00;99230.20;223788;1265;139534;-78
2023/11/28 18:01:04;;;;;;;52.80;23.90;;;;;;;-2.41;100.00;99231.70;223345;1265;140711;-79
2023/11/28 18:07:10;;;;;;;53.20;22.50;;;;;;;-2.47;100.00;99234.89;223299;1265;141497;-79
2023/11/28 18:13:05;;;;;;;52.30;23.30;;;;;;;-2.52;100.00;99243.59;223889;1265;139291;-78
2023/11/28 18:19:04;;;;;;;56.80;25.00;;;;;;;-2.56;100.00;99255.19;223254;1265;140918;-78
2023/11/28 18:25:05;;;;;;;47.70;22.10;;;;;;;-2.62;100.00;99268.77;223820;1265;139294;-78
2023/11/28 18:31:05;;;;;;;52.90;23.60;;;;;;;-2.66;100.00;99273.14;223330;1265;140418;-78
2023/11/28 18:36:49;;;;;;;50.30;21.70;;;;;;;-2.70;100.00;99293.44;223360;1265;140953;-77
2023/11/28 18:42:42;;;;;;;50.00;21.60;;;;;;;-2.75;100.00;99300.21;223867;1265;139100;-78
2023/11/28 18:54:41;;;;;;;59.20;25.70;;;;;;;-2.81;100.00;99315.58;223777;1266;139200;-79
2023/11/28 19:00:42;;;;;;;56.10;23.20;;;;;;;-2.85;100.00;99315.85;223502;1265;140330;-78
2023/11/28 19:12:40;;;;;;;67.90;29.10;;;;;;;-2.96;100.00;99324.61;223823;1265;139584;-77
2023/11/28 19:18:43;;;;;;;73.70;36.80;;;;;;;-3.01;100.00;99330.84;223224;1265;140508;-77
2023/11/28 19:24:33;;;;;;;;;;;;;;;;;;;;;
2023/11/28 19:30:36;;;;;;;86.80;35.10;;;;;;;-3.16;100.00;99331.70;223383;1265;140703;-78
2023/11/28 19:36:37;;;;;;;69.50;33.20;;;;;;;-3.24;100.00;99346.42;223374;1265;140976;-79
2023/11/28 19:42:38;;;;;;;71.40;29.50;;;;;;;-3.34;100.00;99347.20;223874;1265;139333;-78
2023/11/28 19:48:39;;;;;;;64.80;29.60;;;;;;;-3.45;100.00;99348.86;223472;1265;141671;-78
2023/11/28 19:54:40;;;;;;;69.80;31.10;;;;;;;-3.53;100.00;99355.27;223893;1266;139127;-77
2023/11/28 20:00:38;;;;;;;72.10;30.70;;;;;;;-3.61;100.00;99362.41;223348;1265;140694;-77
2023/11/28 20:06:25;;;;;;;67.70;29.10;;;;;;;-3.69;100.00;99364.94;223391;1265;140582;-76
2023/11/28 20:12:19;;;;;;;68.60;29.90;;;;;;;-3.79;100.00;99376.16;223828;1265;139819;-76
2023/11/28 20:18:07;;;;;;;69.30;30.20;;;;;;;-3.91;100.00;99389.59;223309;1265;140874;-77
2023/11/28 20:24:09;;;;;;;71.90;30.90;;;;;;;-4.06;100.00;99391.38;223887;1265;139846;-78
2023/11/28 20:30:07;;;;;;;70.80;32.00;;;;;;;-4.13;100.00;99402.98;223380;1265;140635;-78
2023/11/28 20:36:06;;;;;;;68.30;34.40;;;;;;;-4.19;100.00;99410.78;223837;1265;139380;-77
2023/11/28 20:48:00;;;;;;;58.20;30.00;;;;;;;-4.30;100.00;99413.38;223315;1265;141078;-77
2023/11/28 20:54:01;;;;;;;51.70;25.90;;;;;;;-4.35;100.00;99428.34;223927;1265;139834;-77
2023/11/28 21:05:56;;;;;;;64.70;28.00;;;;;;;-4.42;100.00;99419.91;223828;1265;140832;-77
2023/11/28 21:11:52;;;;;;;;;;;;;;;;;;;;;
2023/11/28 21:17:40;;;;;;;;;;;;;;;;;;;;;
2023/11/28 21:23:33;;;;;;;;;;;;;;;;;;;;;
2023/11/28 21:29:24;;;;;;;77.30;35.30;;;;;;;-4.68;100.00;99431.48;223515;1265;141534;-77
2023/11/28 21:35:26;;;;;;;65.40;30.80;;;;;;;-4.75;100.00;99438.95;223784;1265;139415;-78
2023/11/28 21:41:24;;;;;;;;;;;;;;;;;;;;;
2023/11/28 21:47:25;;;;;;;;;;;;;;;;;;;;;
2023/11/28 21:53:17;;;;;;;81.50;35.20;;;;;;;-5.01;100.00;99444.38;223771;1265;139312;-78
2023/11/28 21:59:24;;;;;;;75.80;33.70;;;;;;;-5.06;100.00;99442.60;223288;1265;140798;-78
2023/11/28 22:05:08;;;;;;;;;;;;;;;;;;;;;
2023/11/28 22:10:53;;;;;;;69.40;32.10;;;;;;;-5.22;100.00;99456.05;223390;1265;140653;-77
2023/11/28 22:16:43;;;;;;;;;;;;;;;;;;;;;
2023/11/28 22:22:56;;;;;;;74.50;33.10;;;;;;;-5.31;100.00;99467.10;223954;1265;95759;-78
2023/11/28 22:34:17;;;;;;;58.50;27.90;;;;;;;-5.35;100.00;99469.45;223906;1265;95826;-78
2023/11/28 22:40:19;;;;;;;71.50;30.90;;;;;;;-5.36;100.00;99477.29;223423;1265;140646;-77
2023/11/28 22:46:41;;;;;;;68.50;30.90;;;;;;;-5.35;100.00;99479.05;223876;1265;139139;-77
2023/11/28 22:52:29;;;;;;;66.30;29.70;;;;;;;-5.35;100.00;99477.15;223819;1265;96013;-76
2023/11/28 22:58:28;;;;;;;59.20;26.80;;;;;;;-5.36;100.00;99471.61;223451;1265;140730;-76
2023/11/28 23:10:33;;;;;;;54.30;23.40;;;;;;;-5.41;100.00;99467.73;223290;1265;140206;-75
2023/11/28 23:16:34;;;;;;;46.10;21.40;;;;;;;-5.39;100.00;99479.11;223211;1265;141280;-76
2023/11/28 23:22:39;;;;;;;45.00;21.20;;;;;;;-5.35;100.00;99490.23;223870;1265;139755;-76
2023/11/28 23:40:14;;;;;;;;;;;;;;;;;;;;;
2023/11/28 23:46:16;;;;;;;32.80;15.00;;;;;;;-5.13;100.00;99500.67;223863;1265;139390;-76
